sensor_id;sensor_type;location;lat;lon;timestamp;pressure;altitude;pressure_sealevel;temperature
45850;BMP180;10739;52.198;20.908;2023-01-26T00:01:25;101199.00;;;4.90
45850;BMP180;10739;52.198;20.908;2023-01-26T00:03:56;101194.00;;;4.90
45850;BMP180;10739;52.198;20.908;2023-01-26T00:06:22;101194.00;;;4.70
45850;BMP180;10739;52.198;20.908;2023-01-26T00:08:51;101186.00;;;4.60
45850;BMP180;10739;52.198;20.908;2023-01-26T00:11:19;101191.00;;;4.50
45850;BMP180;10739;52.198;20.908;2023-01-26T00:13:48;101190.00;;;4.70
45850;BMP180;10739;52.198;20.908;2023-01-26T00:16:15;101187.00;;;4.80
45850;BMP180;10739;52.198;20.908;2023-01-26T00:18:42;101194.00;;;5.00
45850;BMP180;10739;52.198;20.908;2023-01-26T00:21:19;101187.00;;;5.00
45850;BMP180;10739;52.198;20.908;2023-01-26T00:23:47;101179.00;;;4.90
45850;BMP180;10739;52.198;20.908;2023-01-26T00:26:16;101171.00;;;5.10
45850;BMP180;10739;52.198;20.908;2023-01-26T00:28:43;101183.00;;;4.90
45850;BMP180;10739;52.198;20.908;2023-01-26T00:31:12;101182.00;;;4.70
45850;BMP180;10739;52.198;20.908;2023-01-26T00:33:39;101182.00;;;4.80
45850;BMP180;10739;52.198;20.908;2023-01-26T00:36:06;101182.00;;;4.90
45850;BMP180;10739;52.198;20.908;2023-01-26T00:38:32;101176.00;;;5.00
45850;BMP180;10739;52.198;20.908;2023-01-26T00:40:58;101174.00;;;4.30
45850;BMP180;10739;52.198;20.908;2023-01-26T00:43:25;101181.00;;;4.90
45850;BMP180;10739;52.198;20.908;2023-01-26T00:45:51;101181.00;;;4.80
45850;BMP180;10739;52.198;20.908;2023-01-26T00:48:17;101167.00;;;4.70
45850;BMP180;10739;52.198;20.908;2023-01-26T00:50:43;101159.00;;;4.70
45850;BMP180;10739;52.198;20.908;2023-01-26T00:53:10;101163.00;;;4.70
45850;BMP180;10739;52.198;20.908;2023-01-26T00:55:36;101166.00;;;4.50
45850;BMP180;10739;52.198;20.908;2023-01-26T00:58:06;101168.00;;;4.50
45850;BMP180;10739;52.198;20.908;2023-01-26T01:00:34;101161.00;;;4.80
45850;BMP180;10739;52.198;20.908;2023-01-26T01:03:00;101171.00;;;4.80
45850;BMP180;10739;52.198;20.908;2023-01-26T01:05:28;101169.00;;;4.80
45850;BMP180;10739;52.198;20.908;2023-01-26T01:07:55;101166.00;;;4.90
45850;BMP180;10739;52.198;20.908;2023-01-26T01:10:23;101176.00;;;4.90
45850;BMP180;10739;52.198;20.908;2023-01-26T01:12:49;101169.00;;;4.70
45850;BMP180;10739;52.198;20.908;2023-01-26T01:15:15;101164.00;;;4.60
45850;BMP180;10739;52.198;20.908;2023-01-26T01:17:42;101167.00;;;4.80
45850;BMP180;10739;52.198;20.908;2023-01-26T01:20:09;101160.00;;;4.60
45850;BMP180;10739;52.198;20.908;2023-01-26T01:22:36;101156.00;;;4.70
45850;BMP180;10739;52.198;20.908;2023-01-26T01:25:03;101154.00;;;4.60
45850;BMP180;10739;52.198;20.908;2023-01-26T01:27:29;101147.00;;;4.80
45850;BMP180;10739;52.198;20.908;2023-01-26T01:29:55;101153.00;;;4.60
45850;BMP180;10739;52.198;20.908;2023-01-26T01:32:21;101134.00;;;4.80
45850;BMP180;10739;52.198;20.908;2023-01-26T01:34:48;101127.00;;;4.60
45850;BMP180;10739;52.198;20.908;2023-01-26T01:37:16;101120.00;;;4.60
45850;BMP180;10739;52.198;20.908;2023-01-26T01:39:42;101115.00;;;4.40
45850;BMP180;10739;52.198;20.908;2023-01-26T01:42:08;101125.00;;;4.50
45850;BMP180;10739;52.198;20.908;2023-01-26T01:44:36;101122.00;;;4.60
45850;BMP180;10739;52.198;20.908;2023-01-26T01:47:16;101104.00;;;4.80
45850;BMP180;10739;52.198;20.908;2023-01-26T01:49:49;101111.00;;;4.70
45850;BMP180;10739;52.198;20.908;2023-01-26T01:52:26;101105.00;;;4.50
45850;BMP180;10739;52.198;20.908;2023-01-26T01:55:04;101104.00;;;4.60
45850;BMP180;10739;52.198;20.908;2023-01-26T01:57:44;101095.00;;;4.40
45850;BMP180;10739;52.198;20.908;2023-01-26T02:00:17;101094.00;;;4.60
45850;BMP180;10739;52.198;20.908;2023-01-26T02:02:47;101092.00;;;4.50
45850;BMP180;10739;52.198;20.908;2023-01-26T02:05:45;101081.00;;;4.70
45850;BMP180;10739;52.198;20.908;2023-01-26T02:08:13;101079.00;;;4.50
45850;BMP180;10739;52.198;20.908;2023-01-26T02:10:43;101082.00;;;4.60
45850;BMP180;10739;52.198;20.908;2023-01-26T02:13:10;101084.00;;;4.80
45850;BMP180;10739;52.198;20.908;2023-01-26T02:15:37;101078.00;;;4.80
45850;BMP180;10739;52.198;20.908;2023-01-26T02:18:04;101085.00;;;4.40
45850;BMP180;10739;52.198;20.908;2023-01-26T02:20:43;101080.00;;;4.40
45850;BMP180;10739;52.198;20.908;2023-01-26T02:26:07;101075.00;;;4.60
45850;BMP180;10739;52.198;20.908;2023-01-26T02:28:36;101079.00;;;4.50
45850;BMP180;10739;52.198;20.908;2023-01-26T02:31:02;101068.00;;;4.50
45850;BMP180;10739;52.198;20.908;2023-01-26T02:33:31;101077.00;;;4.30
45850;BMP180;10739;52.198;20.908;2023-01-26T02:35:57;101069.00;;;4.40
45850;BMP180;10739;52.198;20.908;2023-01-26T02:38:27;101064.00;;;4.40
45850;BMP180;10739;52.198;20.908;2023-01-26T02:41:04;101060.00;;;4.50
45850;BMP180;10739;52.198;20.908;2023-01-26T02:43:32;101058.00;;;4.30
45850;BMP180;10739;52.198;20.908;2023-01-26T02:45:58;101061.00;;;4.50
45850;BMP180;10739;52.198;20.908;2023-01-26T02:48:24;101055.00;;;4.50
45850;BMP180;10739;52.198;20.908;2023-01-26T02:51:11;101063.00;;;4.20
45850;BMP180;10739;52.198;20.908;2023-01-26T02:53:37;101055.00;;;4.80
45850;BMP180;10739;52.198;20.908;2023-01-26T02:56:03;101052.00;;;4.80
45850;BMP180;10739;52.198;20.908;2023-01-26T02:58:29;101044.00;;;4.40
45850;BMP180;10739;52.198;20.908;2023-01-26T03:00:55;101032.00;;;4.70
45850;BMP180;10739;52.198;20.908;2023-01-26T03:03:24;101025.00;;;4.90
45850;BMP180;10739;52.198;20.908;2023-01-26T03:05:51;101036.00;;;4.80
45850;BMP180;10739;52.198;20.908;2023-01-26T03:08:18;101030.00;;;4.80
45850;BMP180;10739;52.198;20.908;2023-01-26T03:10:44;101023.00;;;4.80
45850;BMP180;10739;52.198;20.908;2023-01-26T03:13:12;101017.00;;;5.00
45850;BMP180;10739;52.198;20.908;2023-01-26T03:15:39;101020.00;;;4.90
45850;BMP180;10739;52.198;20.908;2023-01-26T03:18:13;101022.00;;;4.80
45850;BMP180;10739;52.198;20.908;2023-01-26T03:21:00;101019.00;;;5.00
45850;BMP180;10739;52.198;20.908;2023-01-26T03:23:45;101009.00;;;5.00
45850;BMP180;10739;52.198;20.908;2023-01-26T03:26:30;101011.00;;;4.80
45850;BMP180;10739;52.198;20.908;2023-01-26T03:29:20;101004.00;;;4.90
45850;BMP180;10739;52.198;20.908;2023-01-26T03:31:47;101001.00;;;4.90
45850;BMP180;10739;52.198;20.908;2023-01-26T03:34:14;101000.00;;;4.90
45850;BMP180;10739;52.198;20.908;2023-01-26T03:36:40;101003.00;;;4.70
45850;BMP180;10739;52.198;20.908;2023-01-26T03:39:06;101002.00;;;4.70
45850;BMP180;10739;52.198;20.908;2023-01-26T03:41:32;100997.00;;;4.80
45850;BMP180;10739;52.198;20.908;2023-01-26T03:44:16;101006.00;;;4.90
45850;BMP180;10739;52.198;20.908;2023-01-26T03:47:01;100993.00;;;4.70
45850;BMP180;10739;52.198;20.908;2023-01-26T03:49:46;100988.00;;;4.60
45850;BMP180;10739;52.198;20.908;2023-01-26T03:52:31;100985.00;;;4.40
45850;BMP180;10739;52.198;20.908;2023-01-26T03:55:16;100984.00;;;4.70
45850;BMP180;10739;52.198;20.908;2023-01-26T03:58:01;100981.00;;;4.90
45850;BMP180;10739;52.198;20.908;2023-01-26T04:00:27;100977.00;;;5.00
45850;BMP180;10739;52.198;20.908;2023-01-26T04:02:54;100984.00;;;4.90
45850;BMP180;10739;52.198;20.908;2023-01-26T04:05:41;100990.00;;;4.60
45850;BMP180;10739;52.198;20.908;2023-01-26T04:08:26;100976.00;;;4.50
45850;BMP180;10739;52.198;20.908;2023-01-26T04:10:53;100973.00;;;4.50
45850;BMP180;10739;52.198;20.908;2023-01-26T04:13:23;100974.00;;;4.60
45850;BMP180;10739;52.198;20.908;2023-01-26T04:16:08;100980.00;;;4.70
45850;BMP180;10739;52.198;20.908;2023-01-26T04:18:54;100964.00;;;5.00
45850;BMP180;10739;52.198;20.908;2023-01-26T04:21:39;100975.00;;;5.20
45850;BMP180;10739;52.198;20.908;2023-01-26T04:24:06;100972.00;;;5.00
45850;BMP180;10739;52.198;20.908;2023-01-26T04:26:40;100974.00;;;4.50
45850;BMP180;10739;52.198;20.908;2023-01-26T04:29:09;100969.00;;;4.50
45850;BMP180;10739;52.198;20.908;2023-01-26T04:31:36;100975.00;;;4.60
45850;BMP180;10739;52.198;20.908;2023-01-26T04:34:03;100979.00;;;4.70
45850;BMP180;10739;52.198;20.908;2023-01-26T04:36:30;100971.00;;;5.10
45850;BMP180;10739;52.198;20.908;2023-01-26T04:38:57;100983.00;;;5.30
45850;BMP180;10739;52.198;20.908;2023-01-26T04:41:24;100973.00;;;4.80
45850;BMP180;10739;52.198;20.908;2023-01-26T04:43:50;100973.00;;;4.90
45850;BMP180;10739;52.198;20.908;2023-01-26T04:46:16;100975.00;;;4.80
45850;BMP180;10739;52.198;20.908;2023-01-26T04:48:42;100980.00;;;4.80
45850;BMP180;10739;52.198;20.908;2023-01-26T04:51:14;100973.00;;;4.80
45850;BMP180;10739;52.198;20.908;2023-01-26T04:53:41;100973.00;;;4.90
45850;BMP180;10739;52.198;20.908;2023-01-26T04:56:21;100966.00;;;5.00
45850;BMP180;10739;52.198;20.908;2023-01-26T04:58:48;100964.00;;;4.80
45850;BMP180;10739;52.198;20.908;2023-01-26T05:01:15;100972.00;;;4.80
45850;BMP180;10739;52.198;20.908;2023-01-26T05:03:41;100960.00;;;4.80
45850;BMP180;10739;52.198;20.908;2023-01-26T05:06:08;100951.00;;;4.90
45850;BMP180;10739;52.198;20.908;2023-01-26T05:08:35;100954.00;;;4.80
45850;BMP180;10739;52.198;20.908;2023-01-26T05:11:02;100956.00;;;4.80
45850;BMP180;10739;52.198;20.908;2023-01-26T05:13:28;100962.00;;;4.90
45850;BMP180;10739;52.198;20.908;2023-01-26T05:15:57;100957.00;;;4.90
45850;BMP180;10739;52.198;20.908;2023-01-26T05:18:30;100954.00;;;4.60
45850;BMP180;10739;52.198;20.908;2023-01-26T05:20:56;100956.00;;;4.70
45850;BMP180;10739;52.198;20.908;2023-01-26T05:23:22;100950.00;;;4.70
45850;BMP180;10739;52.198;20.908;2023-01-26T05:25:48;100953.00;;;4.60
45850;BMP180;10739;52.198;20.908;2023-01-26T05:28:14;100956.00;;;4.70
45850;BMP180;10739;52.198;20.908;2023-01-26T05:30:40;100953.00;;;4.80
45850;BMP180;10739;52.198;20.908;2023-01-26T05:33:09;100954.00;;;5.20
45850;BMP180;10739;52.198;20.908;2023-01-26T05:35:35;100956.00;;;5.30
45850;BMP180;10739;52.198;20.908;2023-01-26T05:38:02;100937.00;;;5.20
45850;BMP180;10739;52.198;20.908;2023-01-26T05:40:28;100943.00;;;4.70
45850;BMP180;10739;52.198;20.908;2023-01-26T05:42:54;100942.00;;;4.80
45850;BMP180;10739;52.198;20.908;2023-01-26T05:45:21;100943.00;;;5.00
45850;BMP180;10739;52.198;20.908;2023-01-26T05:47:47;100953.00;;;5.10
45850;BMP180;10739;52.198;20.908;2023-01-26T05:50:14;100948.00;;;5.20
45850;BMP180;10739;52.198;20.908;2023-01-26T05:52:42;100942.00;;;5.20
45850;BMP180;10739;52.198;20.908;2023-01-26T05:55:09;100952.00;;;5.20
45850;BMP180;10739;52.198;20.908;2023-01-26T05:57:35;100946.00;;;5.40
45850;BMP180;10739;52.198;20.908;2023-01-26T06:00:03;100958.00;;;5.20
45850;BMP180;10739;52.198;20.908;2023-01-26T06:02:30;100959.00;;;5.50
45850;BMP180;10739;52.198;20.908;2023-01-26T06:04:56;100959.00;;;5.50
45850;BMP180;10739;52.198;20.908;2023-01-26T06:07:22;100967.00;;;5.40
45850;BMP180;10739;52.198;20.908;2023-01-26T06:09:48;100956.00;;;5.40
45850;BMP180;10739;52.198;20.908;2023-01-26T06:12:16;100958.00;;;5.60
45850;BMP180;10739;52.198;20.908;2023-01-26T06:14:43;100950.00;;;5.50
45850;BMP180;10739;52.198;20.908;2023-01-26T06:17:10;100952.00;;;4.90
45850;BMP180;10739;52.198;20.908;2023-01-26T06:19:36;100963.00;;;5.30
45850;BMP180;10739;52.198;20.908;2023-01-26T06:22:05;100960.00;;;5.20
45850;BMP180;10739;52.198;20.908;2023-01-26T06:24:31;100958.00;;;5.20
45850;BMP180;10739;52.198;20.908;2023-01-26T06:26:59;100963.00;;;5.00
45850;BMP180;10739;52.198;20.908;2023-01-26T06:29:25;100968.00;;;5.30
45850;BMP180;10739;52.198;20.908;2023-01-26T06:31:51;100962.00;;;5.30
45850;BMP180;10739;52.198;20.908;2023-01-26T06:34:18;100957.00;;;5.30
45850;BMP180;10739;52.198;20.908;2023-01-26T06:36:45;100957.00;;;5.30
45850;BMP180;10739;52.198;20.908;2023-01-26T06:39:11;100953.00;;;5.40
45850;BMP180;10739;52.198;20.908;2023-01-26T06:41:38;100955.00;;;5.30
45850;BMP180;10739;52.198;20.908;2023-01-26T06:44:05;100952.00;;;5.10
45850;BMP180;10739;52.198;20.908;2023-01-26T06:46:31;100949.00;;;5.20
45850;BMP180;10739;52.198;20.908;2023-01-26T06:48:57;100950.00;;;5.20
45850;BMP180;10739;52.198;20.908;2023-01-26T06:52:24;100939.00;;;5.40
45850;BMP180;10739;52.198;20.908;2023-01-26T06:54:31;100946.00;;;5.20
45850;BMP180;10739;52.198;20.908;2023-01-26T06:56:57;100938.00;;;5.10
45850;BMP180;10739;52.198;20.908;2023-01-26T06:59:23;100952.00;;;4.70
45850;BMP180;10739;52.198;20.908;2023-01-26T07:01:49;100937.00;;;4.40
45850;BMP180;10739;52.198;20.908;2023-01-26T07:04:15;100940.00;;;4.40
45850;BMP180;10739;52.198;20.908;2023-01-26T07:06:43;100939.00;;;4.30
45850;BMP180;10739;52.198;20.908;2023-01-26T07:09:10;100941.00;;;4.60
45850;BMP180;10739;52.198;20.908;2023-01-26T07:11:36;100954.00;;;4.80
45850;BMP180;10739;52.198;20.908;2023-01-26T07:14:02;100950.00;;;4.60
45850;BMP180;10739;52.198;20.908;2023-01-26T07:16:28;100949.00;;;4.50
45850;BMP180;10739;52.198;20.908;2023-01-26T07:18:55;100941.00;;;4.60
45850;BMP180;10739;52.198;20.908;2023-01-26T07:21:22;100942.00;;;4.40
45850;BMP180;10739;52.198;20.908;2023-01-26T07:23:48;100937.00;;;4.20
45850;BMP180;10739;52.198;20.908;2023-01-26T07:26:15;100935.00;;;4.60
45850;BMP180;10739;52.198;20.908;2023-01-26T07:28:42;100942.00;;;4.60
45850;BMP180;10739;52.198;20.908;2023-01-26T07:31:09;100930.00;;;4.80
45850;BMP180;10739;52.198;20.908;2023-01-26T07:33:36;100928.00;;;4.50
45850;BMP180;10739;52.198;20.908;2023-01-26T07:36:02;100930.00;;;4.30
45850;BMP180;10739;52.198;20.908;2023-01-26T07:38:29;100922.00;;;4.30
45850;BMP180;10739;52.198;20.908;2023-01-26T07:40:56;100929.00;;;4.40
45850;BMP180;10739;52.198;20.908;2023-01-26T07:43:22;100918.00;;;4.60
45850;BMP180;10739;52.198;20.908;2023-01-26T07:45:52;100916.00;;;4.20
45850;BMP180;10739;52.198;20.908;2023-01-26T07:48:21;100917.00;;;4.30
45850;BMP180;10739;52.198;20.908;2023-01-26T07:50:48;100911.00;;;4.10
45850;BMP180;10739;52.198;20.908;2023-01-26T07:53:16;100917.00;;;4.10
45850;BMP180;10739;52.198;20.908;2023-01-26T07:55:47;100918.00;;;4.10
45850;BMP180;10739;52.198;20.908;2023-01-26T07:58:14;100919.00;;;4.60
45850;BMP180;10739;52.198;20.908;2023-01-26T08:00:40;100911.00;;;4.70
45850;BMP180;10739;52.198;20.908;2023-01-26T08:03:06;100927.00;;;4.70
45850;BMP180;10739;52.198;20.908;2023-01-26T08:05:32;100918.00;;;4.20
45850;BMP180;10739;52.198;20.908;2023-01-26T08:08:00;100923.00;;;4.10
45850;BMP180;10739;52.198;20.908;2023-01-26T08:10:27;100919.00;;;4.60
45850;BMP180;10739;52.198;20.908;2023-01-26T08:13:00;100919.00;;;4.70
45850;BMP180;10739;52.198;20.908;2023-01-26T08:15:27;100912.00;;;4.40
45850;BMP180;10739;52.198;20.908;2023-01-26T08:17:53;100915.00;;;4.70
45850;BMP180;10739;52.198;20.908;2023-01-26T08:20:20;100920.00;;;4.50
45850;BMP180;10739;52.198;20.908;2023-01-26T08:22:46;100920.00;;;4.40
45850;BMP180;10739;52.198;20.908;2023-01-26T08:25:12;100920.00;;;4.50
45850;BMP180;10739;52.198;20.908;2023-01-26T08:27:39;100914.00;;;4.70
45850;BMP180;10739;52.198;20.908;2023-01-26T08:30:06;100918.00;;;4.50
45850;BMP180;10739;52.198;20.908;2023-01-26T08:32:32;100921.00;;;4.40
45850;BMP180;10739;52.198;20.908;2023-01-26T08:34:58;100915.00;;;4.20
45850;BMP180;10739;52.198;20.908;2023-01-26T08:37:25;100906.00;;;4.20
45850;BMP180;10739;52.198;20.908;2023-01-26T08:39:51;100908.00;;;4.10
45850;BMP180;10739;52.198;20.908;2023-01-26T08:42:17;100906.00;;;4.20
45850;BMP180;10739;52.198;20.908;2023-01-26T08:44:43;100912.00;;;4.10
45850;BMP180;10739;52.198;20.908;2023-01-26T08:47:13;100915.00;;;4.10
45850;BMP180;10739;52.198;20.908;2023-01-26T08:49:39;100913.00;;;4.50
45850;BMP180;10739;52.198;20.908;2023-01-26T08:52:05;100917.00;;;4.20
45850;BMP180;10739;52.198;20.908;2023-01-26T08:54:31;100918.00;;;4.20
45850;BMP180;10739;52.198;20.908;2023-01-26T08:56:57;100926.00;;;4.50
45850;BMP180;10739;52.198;20.908;2023-01-26T08:59:23;100919.00;;;4.60
45850;BMP180;10739;52.198;20.908;2023-01-26T09:01:49;100933.00;;;4.20
45850;BMP180;10739;52.198;20.908;2023-01-26T09:04:15;100931.00;;;4.60
45850;BMP180;10739;52.198;20.908;2023-01-26T09:06:42;100940.00;;;4.30
45850;BMP180;10739;52.198;20.908;2023-01-26T09:09:08;100936.00;;;4.10
45850;BMP180;10739;52.198;20.908;2023-01-26T09:11:39;100934.00;;;4.10
45850;BMP180;10739;52.198;20.908;2023-01-26T09:14:05;100942.00;;;4.40
45850;BMP180;10739;52.198;20.908;2023-01-26T09:16:37;100942.00;;;4.30
45850;BMP180;10739;52.198;20.908;2023-01-26T09:19:04;100944.00;;;4.10
45850;BMP180;10739;52.198;20.908;2023-01-26T09:21:30;100953.00;;;4.20
45850;BMP180;10739;52.198;20.908;2023-01-26T09:23:57;100948.00;;;4.30
45850;BMP180;10739;52.198;20.908;2023-01-26T09:26:23;100943.00;;;4.40
45850;BMP180;10739;52.198;20.908;2023-01-26T09:28:51;100939.00;;;4.10
45850;BMP180;10739;52.198;20.908;2023-01-26T09:31:17;100935.00;;;4.00
45850;BMP180;10739;52.198;20.908;2023-01-26T09:33:43;100933.00;;;4.20
45850;BMP180;10739;52.198;20.908;2023-01-26T09:36:10;100938.00;;;4.90
45850;BMP180;10739;52.198;20.908;2023-01-26T09:38:37;100935.00;;;4.60
45850;BMP180;10739;52.198;20.908;2023-01-26T09:41:22;100934.00;;;4.40
45850;BMP180;10739;52.198;20.908;2023-01-26T09:43:56;100929.00;;;4.40
45850;BMP180;10739;52.198;20.908;2023-01-26T09:46:53;100923.00;;;4.30
45850;BMP180;10739;52.198;20.908;2023-01-26T09:52:37;100927.00;;;3.90
45850;BMP180;10739;52.198;20.908;2023-01-26T09:55:13;100926.00;;;4.40
45850;BMP180;10739;52.198;20.908;2023-01-26T09:58:01;100918.00;;;4.40
45850;BMP180;10739;52.198;20.908;2023-01-26T10:00:46;100917.00;;;4.90
45850;BMP180;10739;52.198;20.908;2023-01-26T10:03:22;100910.00;;;4.50
45850;BMP180;10739;52.198;20.908;2023-01-26T10:06:20;100907.00;;;4.50
45850;BMP180;10739;52.198;20.908;2023-01-26T10:08:48;100904.00;;;4.80
45850;BMP180;10739;52.198;20.908;2023-01-26T10:11:36;100892.00;;;4.70
45850;BMP180;10739;52.198;20.908;2023-01-26T10:14:13;100902.00;;;4.40
45850;BMP180;10739;52.198;20.908;2023-01-26T10:16:47;100896.00;;;4.10
45850;BMP180;10739;52.198;20.908;2023-01-26T10:19:26;100885.00;;;4.50
45850;BMP180;10739;52.198;20.908;2023-01-26T10:21:54;100897.00;;;4.60
45850;BMP180;10739;52.198;20.908;2023-01-26T10:24:22;100891.00;;;4.40
45850;BMP180;10739;52.198;20.908;2023-01-26T10:26:52;100887.00;;;4.80
45850;BMP180;10739;52.198;20.908;2023-01-26T10:29:18;100895.00;;;4.50
45850;BMP180;10739;52.198;20.908;2023-01-26T10:31:45;100882.00;;;4.40
45850;BMP180;10739;52.198;20.908;2023-01-26T10:34:16;100865.00;;;4.60
45850;BMP180;10739;52.198;20.908;2023-01-26T10:36:47;100866.00;;;4.50
45850;BMP180;10739;52.198;20.908;2023-01-26T10:39:15;100875.00;;;4.20
45850;BMP180;10739;52.198;20.908;2023-01-26T10:42:02;100866.00;;;4.50
45850;BMP180;10739;52.198;20.908;2023-01-26T10:44:33;100871.00;;;4.40
45850;BMP180;10739;52.198;20.908;2023-01-26T10:49:31;100870.00;;;4.20
45850;BMP180;10739;52.198;20.908;2023-01-26T10:54:47;100855.00;;;4.80
45850;BMP180;10739;52.198;20.908;2023-01-26T10:59:56;100844.00;;;4.30
45850;BMP180;10739;52.198;20.908;2023-01-26T11:02:29;100827.00;;;4.50
45850;BMP180;10739;52.198;20.908;2023-01-26T11:07:39;100839.00;;;4.10
45850;BMP180;10739;52.198;20.908;2023-01-26T11:11:22;100826.00;;;4.30
45850;BMP180;10739;52.198;20.908;2023-01-26T11:13:14;100831.00;;;4.40
45850;BMP180;10739;52.198;20.908;2023-01-26T11:15:50;100829.00;;;4.50
45850;BMP180;10739;52.198;20.908;2023-01-26T11:20:59;100822.00;;;4.50
45850;BMP180;10739;52.198;20.908;2023-01-26T11:24:03;100814.00;;;4.30
45850;BMP180;10739;52.198;20.908;2023-01-26T11:34:54;100808.00;;;4.40
45850;BMP180;10739;52.198;20.908;2023-01-26T11:37:41;100806.00;;;4.40
45850;BMP180;10739;52.198;20.908;2023-01-26T11:40:23;100794.00;;;4.90
45850;BMP180;10739;52.198;20.908;2023-01-26T11:45:32;100796.00;;;4.70
45850;BMP180;10739;52.198;20.908;2023-01-26T11:51:10;100779.00;;;5.10
45850;BMP180;10739;52.198;20.908;2023-01-26T11:56:49;100790.00;;;4.80
45850;BMP180;10739;52.198;20.908;2023-01-26T11:59:27;100790.00;;;5.00
45850;BMP180;10739;52.198;20.908;2023-01-26T12:04:35;100773.00;;;5.00
45850;BMP180;10739;52.198;20.908;2023-01-26T12:07:18;100787.00;;;4.80
45850;BMP180;10739;52.198;20.908;2023-01-26T12:09:47;100783.00;;;4.60
45850;BMP180;10739;52.198;20.908;2023-01-26T12:14:56;100777.00;;;4.60
45850;BMP180;10739;52.198;20.908;2023-01-26T12:20:37;100763.00;;;4.80
45850;BMP180;10739;52.198;20.908;2023-01-26T12:30:40;100764.00;;;5.10
45850;BMP180;10739;52.198;20.908;2023-01-26T12:33:09;100766.00;;;5.20
45850;BMP180;10739;52.198;20.908;2023-01-26T12:41:21;100769.00;;;5.30
45850;BMP180;10739;52.198;20.908;2023-01-26T12:47:02;100764.00;;;5.30
45850;BMP180;10739;52.198;20.908;2023-01-26T12:49:34;100759.00;;;5.10
45850;BMP180;10739;52.198;20.908;2023-01-26T12:52:37;100753.00;;;5.40
45850;BMP180;10739;52.198;20.908;2023-01-26T12:55:22;100754.00;;;4.90
45850;BMP180;10739;52.198;20.908;2023-01-26T12:57:56;100757.00;;;5.00
45850;BMP180;10739;52.198;20.908;2023-01-26T13:00:28;100765.00;;;4.90
45850;BMP180;10739;52.198;20.908;2023-01-26T13:03:03;100769.00;;;4.90
45850;BMP180;10739;52.198;20.908;2023-01-26T13:05:35;100767.00;;;4.90
45850;BMP180;10739;52.198;20.908;2023-01-26T13:10:56;100769.00;;;4.50
45850;BMP180;10739;52.198;20.908;2023-01-26T13:18:58;100766.00;;;4.90
45850;BMP180;10739;52.198;20.908;2023-01-26T13:26:52;100748.00;;;5.10
45850;BMP180;10739;52.198;20.908;2023-01-26T13:29:26;100750.00;;;4.90
45850;BMP180;10739;52.198;20.908;2023-01-26T13:34:45;100746.00;;;5.10
45850;BMP180;10739;52.198;20.908;2023-01-26T13:37:22;100735.00;;;4.90
45850;BMP180;10739;52.198;20.908;2023-01-26T13:39:54;100746.00;;;4.80
45850;BMP180;10739;52.198;20.908;2023-01-26T13:42:26;100731.00;;;4.80
45850;BMP180;10739;52.198;20.908;2023-01-26T13:45:19;100742.00;;;4.50
45850;BMP180;10739;52.198;20.908;2023-01-26T13:47:51;100733.00;;;4.70
45850;BMP180;10739;52.198;20.908;2023-01-26T13:52:49;100737.00;;;4.50
45850;BMP180;10739;52.198;20.908;2023-01-26T13:55:28;100744.00;;;4.40
45850;BMP180;10739;52.198;20.908;2023-01-26T13:58:14;100742.00;;;4.50
45850;BMP180;10739;52.198;20.908;2023-01-26T14:00:40;100740.00;;;4.80
45850;BMP180;10739;52.198;20.908;2023-01-26T14:03:20;100746.00;;;4.60
45850;BMP180;10739;52.198;20.908;2023-01-26T14:06:17;100746.00;;;4.30
45850;BMP180;10739;52.198;20.908;2023-01-26T14:08:54;100744.00;;;4.50
45850;BMP180;10739;52.198;20.908;2023-01-26T14:11:22;100746.00;;;4.50
45850;BMP180;10739;52.198;20.908;2023-01-26T14:13:51;100739.00;;;4.90
45850;BMP180;10739;52.198;20.908;2023-01-26T14:16:28;100732.00;;;4.80
45850;BMP180;10739;52.198;20.908;2023-01-26T14:19:13;100733.00;;;4.40
45850;BMP180;10739;52.198;20.908;2023-01-26T14:21:50;100724.00;;;4.70
45850;BMP180;10739;52.198;20.908;2023-01-26T14:24:38;100737.00;;;4.50
45850;BMP180;10739;52.198;20.908;2023-01-26T14:30:26;100738.00;;;4.70
45850;BMP180;10739;52.198;20.908;2023-01-26T14:33:13;100741.00;;;4.50
45850;BMP180;10739;52.198;20.908;2023-01-26T14:36:03;100728.00;;;4.70
45850;BMP180;10739;52.198;20.908;2023-01-26T14:38:29;100728.00;;;4.60
45850;BMP180;10739;52.198;20.908;2023-01-26T14:41:11;100731.00;;;4.50
45850;BMP180;10739;52.198;20.908;2023-01-26T14:43:40;100731.00;;;4.40
45850;BMP180;10739;52.198;20.908;2023-01-26T14:46:12;100727.00;;;4.40
45850;BMP180;10739;52.198;20.908;2023-01-26T14:48:46;100729.00;;;4.50
45850;BMP180;10739;52.198;20.908;2023-01-26T14:51:21;100722.00;;;4.20
45850;BMP180;10739;52.198;20.908;2023-01-26T14:53:59;100725.00;;;4.40
45850;BMP180;10739;52.198;20.908;2023-01-26T14:56:45;100723.00;;;4.00
45850;BMP180;10739;52.198;20.908;2023-01-26T14:59:34;100720.00;;;4.00
45850;BMP180;10739;52.198;20.908;2023-01-26T15:02:15;100714.00;;;4.00
45850;BMP180;10739;52.198;20.908;2023-01-26T15:09:57;100716.00;;;4.90
45850;BMP180;10739;52.198;20.908;2023-01-26T15:12:23;100710.00;;;4.60
45850;BMP180;10739;52.198;20.908;2023-01-26T15:14:58;100706.00;;;4.80
45850;BMP180;10739;52.198;20.908;2023-01-26T15:17:39;100712.00;;;4.90
45850;BMP180;10739;52.198;20.908;2023-01-26T15:22:48;100723.00;;;4.80
45850;BMP180;10739;52.198;20.908;2023-01-26T15:25:22;100706.00;;;4.70
45850;BMP180;10739;52.198;20.908;2023-01-26T15:27:52;100719.00;;;4.30
45850;BMP180;10739;52.198;20.908;2023-01-26T15:30:44;100708.00;;;4.60
45850;BMP180;10739;52.198;20.908;2023-01-26T15:33:47;100713.00;;;4.40
45850;BMP180;10739;52.198;20.908;2023-01-26T15:36:48;100709.00;;;4.80
45850;BMP180;10739;52.198;20.908;2023-01-26T15:39:18;100717.00;;;5.10
45850;BMP180;10739;52.198;20.908;2023-01-26T15:42:10;100712.00;;;4.50
45850;BMP180;10739;52.198;20.908;2023-01-26T15:44:38;100719.00;;;5.10
45850;BMP180;10739;52.198;20.908;2023-01-26T15:47:07;100721.00;;;4.80
45850;BMP180;10739;52.198;20.908;2023-01-26T15:49:34;100728.00;;;4.50
45850;BMP180;10739;52.198;20.908;2023-01-26T15:52:00;100725.00;;;4.50